• Join FlightAware (Why Join?)
  • Login
  • US Flag 
12:53AM EDT


 

Airport Tracker/Info


-or-


 

Live Flight TrackerFlight Track Log ✈ N7192Y ✈ 21-May-2013 ✈ KDAY - 2G9

Flight Track Log - Related Links

Times and Time Zones

All times are in EDT time to prevent confusion due to time zone crossing. See the N7192Y flight status page for this flight to view local times or setup timezone preferences in your user account.

Time Position Orientation Groundspeed Altitude Reporting Facility
EDT Latitude Longitude Course Direction KTS MPH feet Rate Location/Type
02:56PM 39.8944 -84.2167 192° South 88 101 1,300  Level Indianapolis Center
02:58PM 39.8686 -84.2239 192° South 103 119 2,200 720 Climbing Indianapolis Center
02:59PM 39.8461 -84.1911 132° Southeast 125 144 3,000 780 Climbing Indianapolis Center
03:00PM 39.8389 -84.1494 103° East 145 167 3,700 600 Climbing Indianapolis Center
03:00PM 39.8425 -84.1356 71° East 132 152 3,800 480 Climbing Indianapolis Center
03:01PM 39.8508 -84.1047 71° East 138 159 4,200 540 Climbing Indianapolis Center
03:01PM 39.8533 -84.0897 78° East 134 154 4,400 420 Climbing Indianapolis Center
03:02PM 39.8550 -84.0508 87° East 133 153 4,700 480 Climbing Indianapolis Center
03:02PM 39.8561 -84.0411 82° East 132 152 4,900 480 Climbing Indianapolis Center
03:03PM 39.8586 -84.0025 85° East 140 161 5,200 360 Climbing Indianapolis Center
03:03PM 39.8603 -83.9889 81° East 138 159 5,300 420 Climbing Indianapolis Center
03:04PM 39.8611 -83.9431 89° East 145 167 5,700 420 Climbing Indianapolis Center
03:05PM 39.8639 -83.8842 86° East 143 165 6,200 360 Climbing Indianapolis Center
03:06PM 39.8647 -83.8400 89° East 147 169 6,500 360 Climbing Indianapolis Center
03:06PM 39.8661 -83.8297 80° East 146 168 6,600 360 Climbing Indianapolis Center
03:07PM 39.8669 -83.7861 89° East 155 178 6,900 360 Climbing Indianapolis Center
03:07PM 39.8686 -83.7642 84° East 151 174 7,000 180 Climbing Indianapolis Center
03:08PM 39.8692 -83.7264 89° East 165 190 7,100 60 Climbing Indianapolis Center
03:08PM 39.8714 -83.7036 83° East 158 182 7,100  Level Indianapolis Center
03:09PM 39.8722 -83.6561 89° East 177 204 7,100  Level Indianapolis Center
03:09PM 39.8756 -83.6386 76° East 169 194 7,100  Level Indianapolis Center
03:10PM 39.8769 -83.5917 88° East 182 209 7,100 60 Level Indianapolis Center
03:10PM 39.8789 -83.5722 83° East 177 204 7,200  Climbing Indianapolis Center
03:11PM 39.8839 -83.5272 82° East 181 208 7,100 -120 Descending Indianapolis Center
03:11PM 39.8875 -83.5058 78° East 181 208 7,100  Level Indianapolis Center
03:12PM 39.8928 -83.4631 81° East 181 208 7,100  Level Indianapolis Center
03:12PM 39.8944 -83.4397 85° East 180 207 7,100  Level Indianapolis Center
03:13PM 39.8975 -83.3983 84° East 179 206 7,100  Level Indianapolis Center
03:13PM 39.8975 -83.3736 90° East 179 206 7,100  Level Indianapolis Center
03:14PM 39.8978 -83.3358 89° East 176 203 7,100  Level Indianapolis Center
03:14PM 39.8972 -83.3094 92° East 176 203 7,100  Level Indianapolis Center
03:15PM 39.8983 -83.2681 88° East 172 198 7,100  Level Indianapolis Center
03:15PM 39.8978 -83.2461 92° East 174 200 7,100  Level Indianapolis Center
03:16PM 39.8986 -83.2028 89° East 176 203 7,100  Level Indianapolis Center
03:16PM 39.9008 -83.1803 83° East 178 205 7,100  Level Indianapolis Center
03:17PM 39.9028 -83.1461 86° East 177 204 7,100  Level Indianapolis Center
03:17PM 39.9042 -83.1153 87° East 179 206 7,100  Level Indianapolis Center
03:18PM 39.9050 -83.0811 88° East 177 204 7,100  Level Indianapolis Center
03:18PM 39.9078 -83.0506 83° East 177 204 7,100  Level Indianapolis Center
03:19PM 39.9094 -83.0164 86° East 184 212 7,100  Level Indianapolis Center
03:20PM 39.9125 -82.9839 83° East 182 209 7,100  Level Indianapolis Center
03:20PM 39.9147 -82.9408 86° East 182 209 7,100  Level Indianapolis Center
03:21PM 39.9167 -82.9078 86° East 179 206 7,100  Level Indianapolis Center
03:21PM 39.9189 -82.8761 85° East 180 207 7,100  Level Indianapolis Center
03:22PM 39.9211 -82.8425 85° East 179 206 7,100  Level Indianapolis Center
03:22PM 39.9236 -82.8061 85° East 181 208 7,100  Level Indianapolis Center
03:23PM 39.9264 -82.7753 83° East 184 212 7,100  Level Indianapolis Center
03:23PM 39.9283 -82.7358 86° East 181 208 7,100  Level Indianapolis Center
03:24PM 39.9294 -82.7100 87° East 180 207 7,100  Level Indianapolis Center
03:24PM 39.9325 -82.6711 84° East 182 209 7,100  Level Indianapolis Center
03:25PM 39.9347 -82.6433 84° East 183 211 7,100  Level Indianapolis Center
03:25PM 39.9386 -82.6119 81° East 180 207 7,100  Level Indianapolis Center
03:26PM 39.9392 -82.5783 89° East 180 207 7,100  Level Indianapolis Center
03:27PM 39.9408 -82.5131 88° East 179 206 7,100  Level Indianapolis Center
03:28PM 39.9431 -82.4506 87° East 172 198 7,100  Level Indianapolis Center
03:29PM 39.9450 -82.3744 88° East 177 204 7,100  Level Indianapolis Center
03:30PM 39.9492 -82.3125 85° East 171 197 7,100  Level Indianapolis Center
03:31PM 39.9533 -82.2478 85° East 176 203 7,100  Level Indianapolis Center
03:32PM 39.9575 -82.1828 85° East 179 206 7,100  Level Indianapolis Center
03:33PM 39.9631 -82.1178 84° East 179 206 7,200  Climbing Indianapolis Center
03:34PM 39.9675 -82.0506 85° East 183 211 7,200  Level Indianapolis Center
03:35PM 39.9689 -81.9833 88° East 184 212 7,200  Level Indianapolis Center
03:36PM 39.9719 -81.9156 87° East 186 214 7,200  Level Indianapolis Center
03:37PM 39.9744 -81.8481 87° East 186 214 7,200  Level Indianapolis Center
03:38PM 39.9775 -81.7719 87° East 191 220 7,200  Level Indianapolis Center
03:39PM 39.9800 -81.7039 87° East 188 216 7,200  Level Indianapolis Center
03:40PM 39.9822 -81.6364 88° East 187 215 7,200  Level Indianapolis Center
03:41PM 39.9850 -81.5572 87° East 187 215 7,200  Level Indianapolis Center
03:42PM 39.9864 -81.4892 88° East 186 214 7,200  Level Indianapolis Center
03:43PM 39.9889 -81.4214 87° East 185 213 7,200  Level Indianapolis Center
03:44PM 39.9908 -81.3544 88° East 184 212 7,200  Level Indianapolis Center
03:45PM 39.9936 -81.2861 87° East 186 214 7,200  Level Indianapolis Center
03:46PM 39.9958 -81.2189 88° East 183 211 7,200  Level Indianapolis Center
03:47PM 39.9972 -81.1517 88° East 185 213 7,200  Level Indianapolis Center
03:48PM 39.9986 -81.0869 88° East 179 206 7,200  Level Indianapolis Center
03:49PM 40.0017 -81.0106 87° East 180 207 7,200  Level Indianapolis Center